Markdale, Canada
Current Conditions -  °F | °C
As of 5:00 AM on Saturday 22 Nov 2014 (Local Time) from CYBN Reporting Station
Clear Clear  
Wind Chill: 15°   Ceiling: Unl
Heat Index: 27°   Visibility: 9mi
Dew Point: 12°   Wind: 15mph
Humidity: 55%   Direction: 180°S
Pressure: 30.13"   Gusts: NA
Location:  44.32°N, 80.65°W
Report Text: CYBN 221000Z AUTO 18013KT 9SM CLR M03/M11 A3013 RMK SLP216
Loading
Personal Weather Stations






























Interactive Weather Map New forecast layout! Learn more

10-Day Weather Forecast

Advertisements
Track Severe Weather on mobile